sensor_id;sensor_type;location;lat;lon;timestamp;P1;durP1;ratioP1;P2;durP2;ratioP2
18072;SDS011;9161;47.348;9.648;2022-12-29T00:00:43;0.73;;;0.30;;
18072;SDS011;9161;47.348;9.648;2022-12-29T00:05:27;1.00;;;0.40;;
18072;SDS011;9161;47.348;9.648;2022-12-29T00:10:12;1.63;;;0.30;;
18072;SDS011;9161;47.348;9.648;2022-12-29T00:14:55;0.37;;;0.30;;
18072;SDS011;9161;47.348;9.648;2022-12-29T00:19:58;1.70;;;0.53;;
18072;SDS011;9161;47.348;9.648;2022-12-29T00:24:59;1.00;;;0.43;;
18072;SDS011;9161;47.348;9.648;2022-12-29T00:30:01;0.80;;;0.37;;
18072;SDS011;9161;47.348;9.648;2022-12-29T00:35:03;0.67;;;0.30;;
18072;SDS011;9161;47.348;9.648;2022-12-29T00:39:52;1.23;;;0.37;;
18072;SDS011;9161;47.348;9.648;2022-12-29T00:44:54;2.73;;;0.50;;
18072;SDS011;9161;47.348;9.648;2022-12-29T00:49:39;0.83;;;0.30;;
18072;SDS011;9161;47.348;9.648;2022-12-29T00:54:22;0.60;;;0.30;;
18072;SDS011;9161;47.348;9.648;2022-12-29T00:59:06;0.57;;;0.30;;
18072;SDS011;9161;47.348;9.648;2022-12-29T01:03:51;0.40;;;0.30;;
18072;SDS011;9161;47.348;9.648;2022-12-29T01:08:43;0.50;;;0.30;;
18072;SDS011;9161;47.348;9.648;2022-12-29T01:13:27;0.70;;;0.27;;
18072;SDS011;9161;47.348;9.648;2022-12-29T01:18:11;0.47;;;0.40;;
18072;SDS011;9161;47.348;9.648;2022-12-29T01:22:54;1.50;;;0.40;;
18072;SDS011;9161;47.348;9.648;2022-12-29T01:27:39;1.27;;;0.50;;
18072;SDS011;9161;47.348;9.648;2022-12-29T01:32:23;0.40;;;0.30;;
18072;SDS011;9161;47.348;9.648;2022-12-29T01:37:06;1.10;;;0.50;;
18072;SDS011;9161;47.348;9.648;2022-12-29T01:41:50;0.47;;;0.30;;
18072;SDS011;9161;47.348;9.648;2022-12-29T01:46:36;0.57;;;0.40;;
18072;SDS011;9161;47.348;9.648;2022-12-29T01:51:22;0.30;;;0.23;;
18072;SDS011;9161;47.348;9.648;2022-12-29T01:56:07;2.03;;;0.50;;
18072;SDS011;9161;47.348;9.648;2022-12-29T02:00:54;0.30;;;0.30;;
18072;SDS011;9161;47.348;9.648;2022-12-29T02:05:40;0.73;;;0.40;;
18072;SDS011;9161;47.348;9.648;2022-12-29T02:10:30;0.40;;;0.30;;
18072;SDS011;9161;47.348;9.648;2022-12-29T02:15:17;0.67;;;0.40;;
18072;SDS011;9161;47.348;9.648;2022-12-29T02:20:20;1.50;;;0.53;;
18072;SDS011;9161;47.348;9.648;2022-12-29T02:25:38;1.10;;;0.23;;
18072;SDS011;9161;47.348;9.648;2022-12-29T02:30:58;0.70;;;0.50;;
18072;SDS011;9161;47.348;9.648;2022-12-29T02:35:50;0.60;;;0.30;;
18072;SDS011;9161;47.348;9.648;2022-12-29T02:40:40;0.43;;;0.30;;
18072;SDS011;9161;47.348;9.648;2022-12-29T02:45:30;1.20;;;0.63;;
18072;SDS011;9161;47.348;9.648;2022-12-29T02:50:20;1.10;;;0.40;;
18072;SDS011;9161;47.348;9.648;2022-12-29T02:55:09;1.47;;;0.47;;
18072;SDS011;9161;47.348;9.648;2022-12-29T02:59:53;1.37;;;0.40;;
18072;SDS011;9161;47.348;9.648;2022-12-29T03:04:42;1.20;;;0.40;;
18072;SDS011;9161;47.348;9.648;2022-12-29T03:09:43;1.10;;;0.40;;
18072;SDS011;9161;47.348;9.648;2022-12-29T03:14:37;0.77;;;0.40;;
18072;SDS011;9161;47.348;9.648;2022-12-29T03:19:47;1.00;;;0.50;;
18072;SDS011;9161;47.348;9.648;2022-12-29T03:24:35;0.50;;;0.40;;
18072;SDS011;9161;47.348;9.648;2022-12-29T03:29:23;1.20;;;0.50;;
18072;SDS011;9161;47.348;9.648;2022-12-29T03:34:09;0.50;;;0.40;;
18072;SDS011;9161;47.348;9.648;2022-12-29T03:38:56;0.30;;;0.20;;
18072;SDS011;9161;47.348;9.648;2022-12-29T03:43:44;0.90;;;0.47;;
18072;SDS011;9161;47.348;9.648;2022-12-29T03:48:30;0.37;;;0.20;;
18072;SDS011;9161;47.348;9.648;2022-12-29T03:53:14;0.87;;;0.30;;
18072;SDS011;9161;47.348;9.648;2022-12-29T03:57:59;1.47;;;0.60;;
18072;SDS011;9161;47.348;9.648;2022-12-29T04:02:42;0.90;;;0.43;;
18072;SDS011;9161;47.348;9.648;2022-12-29T04:07:27;0.70;;;0.50;;
18072;SDS011;9161;47.348;9.648;2022-12-29T04:12:11;0.60;;;0.40;;
18072;SDS011;9161;47.348;9.648;2022-12-29T04:16:55;0.53;;;0.40;;
18072;SDS011;9161;47.348;9.648;2022-12-29T04:21:39;1.37;;;0.50;;
18072;SDS011;9161;47.348;9.648;2022-12-29T04:26:24;0.43;;;0.37;;
18072;SDS011;9161;47.348;9.648;2022-12-29T04:31:07;0.77;;;0.40;;
18072;SDS011;9161;47.348;9.648;2022-12-29T04:35:51;0.70;;;0.40;;
18072;SDS011;9161;47.348;9.648;2022-12-29T04:40:37;0.37;;;0.30;;
18072;SDS011;9161;47.348;9.648;2022-12-29T04:45:22;1.40;;;0.33;;
18072;SDS011;9161;47.348;9.648;2022-12-29T04:50:06;0.60;;;0.37;;
18072;SDS011;9161;47.348;9.648;2022-12-29T04:54:50;0.83;;;0.37;;
18072;SDS011;9161;47.348;9.648;2022-12-29T04:59:33;0.87;;;0.20;;
18072;SDS011;9161;47.348;9.648;2022-12-29T05:04:18;0.37;;;0.30;;
18072;SDS011;9161;47.348;9.648;2022-12-29T05:09:02;0.90;;;0.50;;
18072;SDS011;9161;47.348;9.648;2022-12-29T05:13:46;0.70;;;0.20;;
18072;SDS011;9161;47.348;9.648;2022-12-29T05:18:29;0.43;;;0.33;;
18072;SDS011;9161;47.348;9.648;2022-12-29T05:23:15;0.60;;;0.30;;
18072;SDS011;9161;47.348;9.648;2022-12-29T05:27:59;0.30;;;0.30;;
18072;SDS011;9161;47.348;9.648;2022-12-29T05:32:42;0.93;;;0.33;;
18072;SDS011;9161;47.348;9.648;2022-12-29T05:37:26;0.87;;;0.30;;
18072;SDS011;9161;47.348;9.648;2022-12-29T05:42:11;0.70;;;0.40;;
18072;SDS011;9161;47.348;9.648;2022-12-29T05:46:54;0.47;;;0.37;;
18072;SDS011;9161;47.348;9.648;2022-12-29T05:51:38;1.00;;;0.30;;
18072;SDS011;9161;47.348;9.648;2022-12-29T05:56:21;1.93;;;0.60;;
18072;SDS011;9161;47.348;9.648;2022-12-29T06:01:07;1.00;;;0.40;;
18072;SDS011;9161;47.348;9.648;2022-12-29T06:05:50;0.60;;;0.60;;
18072;SDS011;9161;47.348;9.648;2022-12-29T06:10:34;1.77;;;0.40;;
18072;SDS011;9161;47.348;9.648;2022-12-29T06:15:18;0.57;;;0.37;;
18072;SDS011;9161;47.348;9.648;2022-12-29T06:20:03;1.93;;;0.90;;
18072;SDS011;9161;47.348;9.648;2022-12-29T06:24:47;0.83;;;0.40;;
18072;SDS011;9161;47.348;9.648;2022-12-29T06:29:31;1.60;;;0.40;;
18072;SDS011;9161;47.348;9.648;2022-12-29T06:34:14;0.53;;;0.43;;
18072;SDS011;9161;47.348;9.648;2022-12-29T06:38:59;1.43;;;0.50;;
18072;SDS011;9161;47.348;9.648;2022-12-29T06:43:43;0.67;;;0.50;;
18072;SDS011;9161;47.348;9.648;2022-12-29T06:48:26;2.07;;;0.60;;
18072;SDS011;9161;47.348;9.648;2022-12-29T06:53:10;0.77;;;0.40;;
18072;SDS011;9161;47.348;9.648;2022-12-29T06:57:56;1.43;;;0.40;;
18072;SDS011;9161;47.348;9.648;2022-12-29T07:02:40;0.57;;;0.40;;
18072;SDS011;9161;47.348;9.648;2022-12-29T07:07:23;1.03;;;0.60;;
18072;SDS011;9161;47.348;9.648;2022-12-29T07:12:09;0.90;;;0.47;;
18072;SDS011;9161;47.348;9.648;2022-12-29T07:16:54;0.77;;;0.50;;
18072;SDS011;9161;47.348;9.648;2022-12-29T07:21:38;1.03;;;0.50;;
18072;SDS011;9161;47.348;9.648;2022-12-29T07:26:28;0.63;;;0.40;;
18072;SDS011;9161;47.348;9.648;2022-12-29T07:31:17;1.33;;;0.60;;
18072;SDS011;9161;47.348;9.648;2022-12-29T07:36:04;1.00;;;0.60;;
18072;SDS011;9161;47.348;9.648;2022-12-29T07:40:48;0.93;;;0.60;;
18072;SDS011;9161;47.348;9.648;2022-12-29T07:45:32;3.53;;;0.90;;
18072;SDS011;9161;47.348;9.648;2022-12-29T07:50:15;1.00;;;0.40;;
18072;SDS011;9161;47.348;9.648;2022-12-29T07:55:00;1.37;;;0.70;;
18072;SDS011;9161;47.348;9.648;2022-12-29T07:59:44;2.57;;;0.63;;
18072;SDS011;9161;47.348;9.648;2022-12-29T08:04:28;1.23;;;0.60;;
18072;SDS011;9161;47.348;9.648;2022-12-29T08:09:11;1.20;;;0.50;;
18072;SDS011;9161;47.348;9.648;2022-12-29T08:14:03;1.93;;;1.00;;
18072;SDS011;9161;47.348;9.648;2022-12-29T08:18:47;1.97;;;0.90;;
18072;SDS011;9161;47.348;9.648;2022-12-29T08:23:30;1.07;;;0.57;;
18072;SDS011;9161;47.348;9.648;2022-12-29T08:28:14;1.00;;;0.70;;
18072;SDS011;9161;47.348;9.648;2022-12-29T08:32:59;1.10;;;0.70;;
18072;SDS011;9161;47.348;9.648;2022-12-29T08:37:43;1.00;;;0.60;;
18072;SDS011;9161;47.348;9.648;2022-12-29T08:42:26;0.60;;;0.40;;
18072;SDS011;9161;47.348;9.648;2022-12-29T08:47:12;1.47;;;0.60;;
18072;SDS011;9161;47.348;9.648;2022-12-29T08:51:57;0.90;;;0.50;;
18072;SDS011;9161;47.348;9.648;2022-12-29T08:56:40;1.10;;;0.70;;
18072;SDS011;9161;47.348;9.648;2022-12-29T09:01:24;1.53;;;0.60;;
18072;SDS011;9161;47.348;9.648;2022-12-29T09:06:08;0.60;;;0.50;;
18072;SDS011;9161;47.348;9.648;2022-12-29T09:10:53;3.03;;;0.93;;
18072;SDS011;9161;47.348;9.648;2022-12-29T09:15:37;2.00;;;0.90;;
18072;SDS011;9161;47.348;9.648;2022-12-29T09:20:21;2.00;;;0.70;;
18072;SDS011;9161;47.348;9.648;2022-12-29T09:25:05;1.33;;;0.57;;
18072;SDS011;9161;47.348;9.648;2022-12-29T09:29:52;2.47;;;0.80;;
18072;SDS011;9161;47.348;9.648;2022-12-29T09:34:35;1.70;;;0.73;;
18072;SDS011;9161;47.348;9.648;2022-12-29T09:39:19;1.73;;;0.67;;
18072;SDS011;9161;47.348;9.648;2022-12-29T09:44:07;2.70;;;0.80;;
18072;SDS011;9161;47.348;9.648;2022-12-29T09:49:04;1.53;;;0.70;;
18072;SDS011;9161;47.348;9.648;2022-12-29T09:53:57;1.23;;;0.63;;
18072;SDS011;9161;47.348;9.648;2022-12-29T09:58:45;0.60;;;0.50;;
18072;SDS011;9161;47.348;9.648;2022-12-29T10:03:36;1.20;;;0.50;;
18072;SDS011;9161;47.348;9.648;2022-12-29T10:08:34;1.27;;;0.70;;
18072;SDS011;9161;47.348;9.648;2022-12-29T10:13:27;2.37;;;1.70;;
18072;SDS011;9161;47.348;9.648;2022-12-29T10:18:25;1.70;;;0.90;;
18072;SDS011;9161;47.348;9.648;2022-12-29T10:23:26;1.63;;;0.80;;
18072;SDS011;9161;47.348;9.648;2022-12-29T10:28:17;2.57;;;1.00;;
18072;SDS011;9161;47.348;9.648;2022-12-29T10:33:04;2.13;;;1.10;;
18072;SDS011;9161;47.348;9.648;2022-12-29T10:37:52;1.80;;;0.90;;
18072;SDS011;9161;47.348;9.648;2022-12-29T10:42:42;1.20;;;0.60;;
18072;SDS011;9161;47.348;9.648;2022-12-29T10:47:33;2.63;;;0.73;;
18072;SDS011;9161;47.348;9.648;2022-12-29T10:52:22;1.27;;;0.60;;
18072;SDS011;9161;47.348;9.648;2022-12-29T10:57:08;3.77;;;1.07;;
18072;SDS011;9161;47.348;9.648;2022-12-29T11:01:56;1.47;;;0.77;;
18072;SDS011;9161;47.348;9.648;2022-12-29T11:06:46;1.37;;;0.77;;
18072;SDS011;9161;47.348;9.648;2022-12-29T11:11:32;2.20;;;0.70;;
18072;SDS011;9161;47.348;9.648;2022-12-29T11:16:26;1.63;;;0.80;;
18072;SDS011;9161;47.348;9.648;2022-12-29T11:21:23;4.90;;;1.27;;
18072;SDS011;9161;47.348;9.648;2022-12-29T11:26:17;1.63;;;1.03;;
18072;SDS011;9161;47.348;9.648;2022-12-29T11:31:03;2.40;;;1.20;;
18072;SDS011;9161;47.348;9.648;2022-12-29T11:35:48;1.13;;;0.80;;
18072;SDS011;9161;47.348;9.648;2022-12-29T11:40:32;2.97;;;1.10;;
18072;SDS011;9161;47.348;9.648;2022-12-29T11:45:24;1.50;;;1.00;;
18072;SDS011;9161;47.348;9.648;2022-12-29T11:50:15;1.23;;;0.80;;
18072;SDS011;9161;47.348;9.648;2022-12-29T11:55:01;1.47;;;0.87;;
18072;SDS011;9161;47.348;9.648;2022-12-29T11:59:49;1.53;;;0.80;;
18072;SDS011;9161;47.348;9.648;2022-12-29T12:04:38;1.17;;;0.70;;
18072;SDS011;9161;47.348;9.648;2022-12-29T12:09:23;1.60;;;0.97;;
18072;SDS011;9161;47.348;9.648;2022-12-29T12:14:14;3.50;;;0.80;;
18072;SDS011;9161;47.348;9.648;2022-12-29T12:19:04;4.63;;;1.40;;
18072;SDS011;9161;47.348;9.648;2022-12-29T12:24:07;2.17;;;1.00;;
18072;SDS011;9161;47.348;9.648;2022-12-29T12:29:04;1.27;;;0.73;;
18072;SDS011;9161;47.348;9.648;2022-12-29T12:33:53;1.20;;;0.70;;
18072;SDS011;9161;47.348;9.648;2022-12-29T12:38:45;2.07;;;0.90;;
18072;SDS011;9161;47.348;9.648;2022-12-29T12:43:42;3.10;;;0.87;;
18072;SDS011;9161;47.348;9.648;2022-12-29T12:48:36;0.97;;;0.60;;
18072;SDS011;9161;47.348;9.648;2022-12-29T12:58:48;3.13;;;1.10;;
18072;SDS011;9161;47.348;9.648;2022-12-29T13:03:41;1.20;;;0.63;;
18072;SDS011;9161;47.348;9.648;2022-12-29T13:08:43;2.27;;;0.70;;
18072;SDS011;9161;47.348;9.648;2022-12-29T13:13:51;3.00;;;0.80;;
18072;SDS011;9161;47.348;9.648;2022-12-29T13:18:49;2.13;;;0.67;;
18072;SDS011;9161;47.348;9.648;2022-12-29T13:23:41;1.27;;;0.80;;
18072;SDS011;9161;47.348;9.648;2022-12-29T13:28:31;3.20;;;0.70;;
18072;SDS011;9161;47.348;9.648;2022-12-29T13:33:23;1.20;;;0.70;;
18072;SDS011;9161;47.348;9.648;2022-12-29T13:38:12;1.10;;;0.70;;
18072;SDS011;9161;47.348;9.648;2022-12-29T13:43:01;2.40;;;0.90;;
18072;SDS011;9161;47.348;9.648;2022-12-29T13:47:46;1.33;;;0.90;;
18072;SDS011;9161;47.348;9.648;2022-12-29T13:52:36;1.63;;;0.90;;
18072;SDS011;9161;47.348;9.648;2022-12-29T13:57:41;1.03;;;0.83;;
18072;SDS011;9161;47.348;9.648;2022-12-29T14:02:31;1.83;;;1.00;;
18072;SDS011;9161;47.348;9.648;2022-12-29T14:07:25;3.07;;;1.20;;
18072;SDS011;9161;47.348;9.648;2022-12-29T14:12:21;1.03;;;0.60;;
18072;SDS011;9161;47.348;9.648;2022-12-29T14:17:11;2.00;;;0.60;;
18072;SDS011;9161;47.348;9.648;2022-12-29T14:21:56;1.47;;;0.70;;
18072;SDS011;9161;47.348;9.648;2022-12-29T14:26:42;3.73;;;0.87;;
18072;SDS011;9161;47.348;9.648;2022-12-29T14:31:36;3.87;;;1.27;;
18072;SDS011;9161;47.348;9.648;2022-12-29T14:36:24;1.50;;;0.77;;
18072;SDS011;9161;47.348;9.648;2022-12-29T14:41:17;2.50;;;0.83;;
18072;SDS011;9161;47.348;9.648;2022-12-29T14:46:09;2.07;;;0.80;;
18072;SDS011;9161;47.348;9.648;2022-12-29T14:50:55;2.00;;;0.70;;
18072;SDS011;9161;47.348;9.648;2022-12-29T14:55:38;1.23;;;0.70;;
18072;SDS011;9161;47.348;9.648;2022-12-29T15:00:26;2.43;;;1.17;;
18072;SDS011;9161;47.348;9.648;2022-12-29T15:10:21;2.20;;;0.97;;
18072;SDS011;9161;47.348;9.648;2022-12-29T15:15:18;4.53;;;0.90;;
18072;SDS011;9161;47.348;9.648;2022-12-29T15:20:14;1.70;;;0.67;;
18072;SDS011;9161;47.348;9.648;2022-12-29T15:25:03;1.83;;;0.90;;
18072;SDS011;9161;47.348;9.648;2022-12-29T15:29:52;2.00;;;1.10;;
18072;SDS011;9161;47.348;9.648;2022-12-29T15:34:39;1.13;;;0.70;;
18072;SDS011;9161;47.348;9.648;2022-12-29T15:39:26;4.13;;;1.50;;
18072;SDS011;9161;47.348;9.648;2022-12-29T15:44:13;5.13;;;1.57;;
18072;SDS011;9161;47.348;9.648;2022-12-29T15:49:06;3.60;;;1.17;;
18072;SDS011;9161;47.348;9.648;2022-12-29T15:53:51;1.97;;;0.97;;
18072;SDS011;9161;47.348;9.648;2022-12-29T15:58:39;2.20;;;0.87;;
18072;SDS011;9161;47.348;9.648;2022-12-29T16:03:27;1.77;;;1.00;;
18072;SDS011;9161;47.348;9.648;2022-12-29T16:08:27;3.53;;;1.40;;
18072;SDS011;9161;47.348;9.648;2022-12-29T16:13:15;7.20;;;1.87;;
18072;SDS011;9161;47.348;9.648;2022-12-29T16:18:03;6.30;;;2.00;;
18072;SDS011;9161;47.348;9.648;2022-12-29T16:22:47;2.03;;;1.10;;
18072;SDS011;9161;47.348;9.648;2022-12-29T16:27:36;1.37;;;0.80;;
18072;SDS011;9161;47.348;9.648;2022-12-29T16:32:23;1.93;;;0.90;;
18072;SDS011;9161;47.348;9.648;2022-12-29T16:37:24;3.13;;;1.60;;
18072;SDS011;9161;47.348;9.648;2022-12-29T16:47:20;6.03;;;2.00;;
18072;SDS011;9161;47.348;9.648;2022-12-29T16:52:11;6.37;;;2.30;;
18072;SDS011;9161;47.348;9.648;2022-12-29T16:56:56;4.37;;;1.57;;
18072;SDS011;9161;47.348;9.648;2022-12-29T17:01:40;3.17;;;1.40;;
18072;SDS011;9161;47.348;9.648;2022-12-29T17:06:26;3.83;;;2.10;;
18072;SDS011;9161;47.348;9.648;2022-12-29T17:11:15;3.57;;;1.40;;
18072;SDS011;9161;47.348;9.648;2022-12-29T17:16:22;2.97;;;1.40;;
18072;SDS011;9161;47.348;9.648;2022-12-29T17:21:06;2.13;;;1.40;;
18072;SDS011;9161;47.348;9.648;2022-12-29T17:25:51;3.53;;;1.50;;
18072;SDS011;9161;47.348;9.648;2022-12-29T17:30:36;6.40;;;2.20;;
18072;SDS011;9161;47.348;9.648;2022-12-29T17:35:20;6.97;;;2.73;;
18072;SDS011;9161;47.348;9.648;2022-12-29T17:40:05;6.17;;;3.10;;
18072;SDS011;9161;47.348;9.648;2022-12-29T17:44:51;4.10;;;2.30;;
18072;SDS011;9161;47.348;9.648;2022-12-29T17:49:35;8.00;;;2.90;;
18072;SDS011;9161;47.348;9.648;2022-12-29T17:54:19;7.13;;;3.30;;
18072;SDS011;9161;47.348;9.648;2022-12-29T17:59:07;5.20;;;2.90;;
18072;SDS011;9161;47.348;9.648;2022-12-29T18:03:56;5.83;;;2.70;;
18072;SDS011;9161;47.348;9.648;2022-12-29T18:08:40;6.73;;;3.20;;
18072;SDS011;9161;47.348;9.648;2022-12-29T18:13:25;9.30;;;3.77;;
18072;SDS011;9161;47.348;9.648;2022-12-29T18:18:27;13.20;;;5.00;;
18072;SDS011;9161;47.348;9.648;2022-12-29T18:23:14;11.60;;;4.53;;
18072;SDS011;9161;47.348;9.648;2022-12-29T18:28:01;11.50;;;4.40;;
18072;SDS011;9161;47.348;9.648;2022-12-29T18:32:45;10.17;;;4.17;;
18072;SDS011;9161;47.348;9.648;2022-12-29T18:37:29;11.33;;;4.50;;
18072;SDS011;9161;47.348;9.648;2022-12-29T18:42:15;11.77;;;4.67;;
18072;SDS011;9161;47.348;9.648;2022-12-29T18:47:00;10.53;;;5.07;;
18072;SDS011;9161;47.348;9.648;2022-12-29T18:51:44;12.03;;;4.80;;
18072;SDS011;9161;47.348;9.648;2022-12-29T18:56:28;9.93;;;4.73;;
18072;SDS011;9161;47.348;9.648;2022-12-29T19:01:17;11.57;;;5.53;;
18072;SDS011;9161;47.348;9.648;2022-12-29T19:06:02;13.40;;;6.63;;
18072;SDS011;9161;47.348;9.648;2022-12-29T19:10:47;11.50;;;6.00;;
18072;SDS011;9161;47.348;9.648;2022-12-29T19:15:32;11.70;;;6.33;;
18072;SDS011;9161;47.348;9.648;2022-12-29T19:20:23;9.47;;;5.10;;
18072;SDS011;9161;47.348;9.648;2022-12-29T19:25:09;9.30;;;4.73;;
18072;SDS011;9161;47.348;9.648;2022-12-29T19:29:52;10.13;;;5.17;;
18072;SDS011;9161;47.348;9.648;2022-12-29T19:34:36;9.53;;;4.53;;
18072;SDS011;9161;47.348;9.648;2022-12-29T19:39:22;7.60;;;3.83;;
18072;SDS011;9161;47.348;9.648;2022-12-29T19:44:06;11.47;;;4.00;;
18072;SDS011;9161;47.348;9.648;2022-12-29T19:48:50;10.67;;;4.43;;
18072;SDS011;9161;47.348;9.648;2022-12-29T19:53:35;8.00;;;4.43;;
18072;SDS011;9161;47.348;9.648;2022-12-29T19:58:21;14.20;;;4.40;;
18072;SDS011;9161;47.348;9.648;2022-12-29T20:03:05;8.97;;;4.07;;
18072;SDS011;9161;47.348;9.648;2022-12-29T20:07:50;8.77;;;4.00;;
18072;SDS011;9161;47.348;9.648;2022-12-29T20:12:34;9.17;;;4.27;;
18072;SDS011;9161;47.348;9.648;2022-12-29T20:17:22;17.30;;;5.90;;
18072;SDS011;9161;47.348;9.648;2022-12-29T20:22:26;15.67;;;5.73;;
18072;SDS011;9161;47.348;9.648;2022-12-29T20:27:10;21.70;;;7.50;;
18072;SDS011;9161;47.348;9.648;2022-12-29T20:31:54;9.60;;;4.57;;
18072;SDS011;9161;47.348;9.648;2022-12-29T20:36:40;12.23;;;5.63;;
18072;SDS011;9161;47.348;9.648;2022-12-29T20:41:26;10.40;;;5.20;;
18072;SDS011;9161;47.348;9.648;2022-12-29T20:46:11;14.47;;;6.60;;
18072;SDS011;9161;47.348;9.648;2022-12-29T20:51:01;14.10;;;6.20;;
18072;SDS011;9161;47.348;9.648;2022-12-29T20:55:47;10.50;;;6.00;;
18072;SDS011;9161;47.348;9.648;2022-12-29T21:00:31;13.03;;;6.10;;
18072;SDS011;9161;47.348;9.648;2022-12-29T21:05:18;11.93;;;6.33;;
18072;SDS011;9161;47.348;9.648;2022-12-29T21:10:06;13.03;;;5.53;;
18072;SDS011;9161;47.348;9.648;2022-12-29T21:14:51;13.43;;;5.87;;
18072;SDS011;9161;47.348;9.648;2022-12-29T21:19:35;11.23;;;5.57;;
18072;SDS011;9161;47.348;9.648;2022-12-29T21:24:18;11.43;;;6.00;;
18072;SDS011;9161;47.348;9.648;2022-12-29T21:29:02;12.70;;;5.37;;
18072;SDS011;9161;47.348;9.648;2022-12-29T21:33:47;9.50;;;4.87;;
18072;SDS011;9161;47.348;9.648;2022-12-29T21:38:31;10.13;;;5.33;;
18072;SDS011;9161;47.348;9.648;2022-12-29T21:43:15;10.63;;;5.63;;
18072;SDS011;9161;47.348;9.648;2022-12-29T21:47:59;11.67;;;4.77;;
18072;SDS011;9161;47.348;9.648;2022-12-29T21:53:03;9.93;;;5.60;;
18072;SDS011;9161;47.348;9.648;2022-12-29T21:57:46;10.83;;;5.80;;
18072;SDS011;9161;47.348;9.648;2022-12-29T22:02:47;11.67;;;5.90;;
18072;SDS011;9161;47.348;9.648;2022-12-29T22:07:54;12.13;;;4.57;;
18072;SDS011;9161;47.348;9.648;2022-12-29T22:12:57;7.50;;;4.47;;
18072;SDS011;9161;47.348;9.648;2022-12-29T22:17:42;9.20;;;3.73;;
18072;SDS011;9161;47.348;9.648;2022-12-29T22:22:29;8.87;;;3.93;;
18072;SDS011;9161;47.348;9.648;2022-12-29T22:27:13;9.83;;;4.20;;
18072;SDS011;9161;47.348;9.648;2022-12-29T22:31:58;6.63;;;3.60;;
18072;SDS011;9161;47.348;9.648;2022-12-29T22:36:42;9.17;;;3.57;;
18072;SDS011;9161;47.348;9.648;2022-12-29T22:41:26;7.27;;;3.40;;
18072;SDS011;9161;47.348;9.648;2022-12-29T22:46:10;8.90;;;3.50;;
18072;SDS011;9161;47.348;9.648;2022-12-29T22:50:56;8.53;;;3.90;;
18072;SDS011;9161;47.348;9.648;2022-12-29T22:55:39;11.30;;;4.30;;
18072;SDS011;9161;47.348;9.648;2022-12-29T23:00:23;9.83;;;4.00;;
18072;SDS011;9161;47.348;9.648;2022-12-29T23:05:07;12.10;;;4.27;;
18072;SDS011;9161;47.348;9.648;2022-12-29T23:09:53;9.20;;;4.63;;
18072;SDS011;9161;47.348;9.648;2022-12-29T23:14:37;8.53;;;3.87;;
18072;SDS011;9161;47.348;9.648;2022-12-29T23:19:20;7.47;;;3.70;;
18072;SDS011;9161;47.348;9.648;2022-12-29T23:24:05;11.67;;;4.20;;
18072;SDS011;9161;47.348;9.648;2022-12-29T23:28:54;10.57;;;3.40;;
18072;SDS011;9161;47.348;9.648;2022-12-29T23:33:41;6.97;;;3.83;;
18072;SDS011;9161;47.348;9.648;2022-12-29T23:38:30;7.20;;;3.13;;
18072;SDS011;9161;47.348;9.648;2022-12-29T23:43:26;2.97;;;1.70;;
18072;SDS011;9161;47.348;9.648;2022-12-29T23:48:12;3.00;;;1.30;;
18072;SDS011;9161;47.348;9.648;2022-12-29T23:52:56;3.67;;;1.70;;
18072;SDS011;9161;47.348;9.648;2022-12-29T23:57:41;6.33;;;2.70;;
